createdAt,value
2023-01-25T00:00:39.384Z,102985.72
2023-01-25T00:02:42.835Z,102982.31
2023-01-25T00:04:46.341Z,102979.53
2023-01-25T00:06:50.268Z,102977.25
2023-01-25T00:08:53.852Z,102987.84
2023-01-25T00:10:58.554Z,102981.31
2023-01-25T00:13:03.500Z,102980.03
2023-01-25T00:15:08.677Z,102975.16
2023-01-25T00:17:12.450Z,102973.41
2023-01-25T00:19:15.867Z,102971.38
2023-01-25T00:21:21.376Z,102966.66
2023-01-25T00:23:24.778Z,102973.00
2023-01-25T00:25:28.236Z,102967.22
2023-01-25T00:27:31.598Z,102964.00
2023-01-25T00:29:36.391Z,102962.97
2023-01-25T00:31:47.720Z,102962.97
2023-01-25T00:33:56.894Z,102956.91
2023-01-25T00:36:02.557Z,102946.41
2023-01-25T00:38:28.537Z,102953.41
2023-01-25T00:40:31.869Z,102954.72
2023-01-25T00:42:35.511Z,102954.22
2023-01-25T00:44:40.509Z,102841.38
2023-01-25T00:46:45.479Z,102944.91
2023-01-25T00:48:49.314Z,102943.88
2023-01-25T00:50:52.660Z,102942.94
2023-01-25T00:52:56.059Z,102937.38
2023-01-25T00:54:59.456Z,102936.72
2023-01-25T00:57:03.165Z,102823.53
2023-01-25T00:59:07.207Z,102931.03
2023-01-25T01:01:13.004Z,102931.47
2023-01-25T01:03:17.318Z,102925.94
2023-01-25T01:05:22.365Z,102918.75
2023-01-25T01:07:25.999Z,102921.47
2023-01-25T01:09:29.513Z,102926.41
2023-01-25T01:11:34.920Z,102933.41
2023-01-25T01:13:38.478Z,102927.59
2023-01-25T01:15:41.944Z,102922.16
2023-01-25T01:17:47.135Z,102926.41
2023-01-25T01:19:50.601Z,102929.91
2023-01-25T01:21:54.024Z,102919.66
2023-01-25T01:23:58.943Z,102916.50
2023-01-25T01:26:02.978Z,102924.94
2023-01-25T01:28:06.447Z,102928.63
2023-01-25T01:30:11.725Z,102923.53
2023-01-25T01:32:15.462Z,102930.19
2023-01-25T01:34:20.774Z,102928.69
2023-01-25T01:36:25.764Z,102924.03
2023-01-25T01:38:30.274Z,102931.97
2023-01-25T01:40:33.665Z,102931.03
2023-01-25T01:42:57.538Z,102932.75
2023-01-25T01:45:00.936Z,102924.78
2023-01-25T01:47:04.662Z,102925.00
2023-01-25T01:49:16.056Z,102897.19
2023-01-25T01:51:25.546Z,102931.75
2023-01-25T01:53:31.747Z,102939.97
2023-01-25T01:55:35.209Z,102941.66
2023-01-25T02:01:06.848Z,102936.78
2023-01-25T02:03:12.318Z,102921.41
2023-01-25T02:05:20.542Z,102927.03
2023-01-25T02:07:35.004Z,102919.00
2023-01-25T02:09:38.836Z,102824.38
2023-01-25T02:11:42.975Z,102814.91
2023-01-25T02:13:46.455Z,102920.16
2023-01-25T02:15:56.302Z,102918.78
2023-01-25T02:18:00.448Z,102919.03
2023-01-25T02:20:09.722Z,102923.81
2023-01-25T02:22:17.025Z,102913.53
2023-01-25T02:24:29.370Z,102916.75
2023-01-25T02:26:34.903Z,102910.66
2023-01-25T02:28:43.539Z,102918.88
2023-01-25T02:30:47.279Z,102907.50
2023-01-25T02:32:52.581Z,102911.75
2023-01-25T02:34:56.571Z,102901.84
2023-01-25T02:37:00.720Z,102909.72
2023-01-25T02:39:06.686Z,102906.25
2023-01-25T02:41:14.780Z,102900.00
2023-01-25T02:43:20.545Z,102894.69
2023-01-25T02:45:30.577Z,102895.59
2023-01-25T02:47:34.079Z,102893.50
2023-01-25T02:49:39.097Z,102898.31
2023-01-25T02:51:46.686Z,102896.00
2023-01-25T02:53:50.574Z,102894.41
2023-01-25T02:55:54.067Z,102887.13
2023-01-25T02:57:57.475Z,102893.44
2023-01-25T03:00:02.297Z,102900.59
2023-01-25T03:02:06.060Z,102900.41
2023-01-25T03:04:10.264Z,102899.25
2023-01-25T03:06:13.759Z,102892.53
2023-01-25T03:08:19.183Z,102813.81
2023-01-25T03:10:25.231Z,102891.06
2023-01-25T03:12:29.605Z,102890.31
2023-01-25T03:14:33.180Z,102884.59
2023-01-25T03:16:38.028Z,102887.72
2023-01-25T03:18:43.709Z,102891.53
2023-01-25T03:20:48.017Z,102886.38
2023-01-25T03:22:51.503Z,102887.44
2023-01-25T03:24:55.006Z,102889.66
2023-01-25T03:27:17.115Z,102891.81
2023-01-25T03:29:26.705Z,102898.13
2023-01-25T03:31:30.385Z,102889.47
2023-01-25T03:33:35.880Z,102896.19
2023-01-25T03:35:39.665Z,102895.44
2023-01-25T03:37:43.943Z,102895.88
2023-01-25T03:39:47.697Z,102861.28
2023-01-25T03:41:51.418Z,102888.06
2023-01-25T03:43:55.238Z,102888.50
2023-01-25T03:46:01.372Z,102887.31
2023-01-25T03:48:07.224Z,102763.34
2023-01-25T03:50:12.783Z,102896.59
2023-01-25T03:52:17.372Z,102878.44
2023-01-25T03:54:21.029Z,102882.16
2023-01-25T03:56:24.391Z,102878.03
2023-01-25T03:58:39.452Z,102892.94
2023-01-25T04:00:45.236Z,102873.22
2023-01-25T04:02:49.393Z,102864.75
2023-01-25T04:04:55.237Z,102864.81
2023-01-25T04:07:00.842Z,102869.09
2023-01-25T04:09:06.787Z,102864.22
2023-01-25T04:11:15.783Z,102863.63
2023-01-25T04:13:22.686Z,102858.97
2023-01-25T04:15:27.119Z,102855.47
2023-01-25T04:17:32.501Z,102853.66
2023-01-25T04:19:39.173Z,102839.13
2023-01-25T04:21:47.046Z,102840.78
2023-01-25T04:23:51.905Z,102839.28
2023-01-25T04:25:56.207Z,102832.88
2023-01-25T04:28:00.135Z,102829.00
2023-01-25T04:30:03.871Z,102829.19
2023-01-25T04:32:10.816Z,102829.38
2023-01-25T04:34:14.739Z,102826.56
2023-01-25T04:36:18.247Z,102829.81
2023-01-25T04:38:23.237Z,102832.81
2023-01-25T04:40:28.684Z,102823.63
2023-01-25T04:42:32.412Z,102739.22
2023-01-25T04:44:35.812Z,102822.59
2023-01-25T04:46:39.969Z,102806.88
2023-01-25T04:48:43.700Z,102817.47
2023-01-25T04:50:47.667Z,102817.97
2023-01-25T04:52:51.382Z,102812.38
2023-01-25T04:54:54.906Z,102803.59
2023-01-25T04:57:00.248Z,102819.22
2023-01-25T04:59:04.094Z,102821.22
2023-01-25T05:01:08.916Z,102821.97
2023-01-25T05:03:12.382Z,102812.88
2023-01-25T05:05:16.148Z,102810.22
2023-01-25T05:07:22.463Z,102814.78
2023-01-25T05:09:26.503Z,102813.63
2023-01-25T05:11:30.767Z,102801.78
2023-01-25T05:13:58.394Z,102803.44
2023-01-25T05:16:09.134Z,102802.19
2023-01-25T05:18:14.210Z,102804.00
2023-01-25T05:20:17.864Z,102802.53
2023-01-25T05:22:21.787Z,102797.66
2023-01-25T05:24:30.214Z,102687.03
2023-01-25T05:26:52.754Z,102795.78
2023-01-25T05:28:56.318Z,102795.50
2023-01-25T05:31:16.366Z,102788.50
2023-01-25T05:33:20.185Z,102714.25
2023-01-25T05:35:23.627Z,102785.94
2023-01-25T05:37:30.821Z,102790.63
2023-01-25T05:39:39.301Z,102787.66
2023-01-25T05:41:42.769Z,102787.69
2023-01-25T05:43:49.154Z,102787.97
2023-01-25T05:45:54.803Z,102790.03
2023-01-25T05:48:00.699Z,102798.63
2023-01-25T05:50:04.500Z,102796.13
2023-01-25T05:52:29.481Z,102789.69
2023-01-25T05:54:32.988Z,102784.91
2023-01-25T05:56:40.825Z,102786.91
2023-01-25T05:58:44.845Z,102784.91
2023-01-25T06:00:48.333Z,102793.53
2023-01-25T06:03:04.825Z,102790.66
2023-01-25T06:05:11.924Z,102781.25
2023-01-25T06:07:15.547Z,102786.47
2023-01-25T06:09:19.430Z,102796.16
2023-01-25T06:11:25.224Z,102789.97
2023-01-25T06:13:30.749Z,102790.44
2023-01-25T06:15:35.197Z,102783.41
2023-01-25T06:17:57.786Z,102777.63
2023-01-25T06:20:12.084Z,102778.19
2023-01-25T06:22:31.905Z,102769.25
2023-01-25T06:24:35.315Z,102694.03
2023-01-25T06:26:38.824Z,102779.44
2023-01-25T06:28:42.467Z,102768.28
2023-01-25T06:30:45.984Z,102764.56
2023-01-25T06:32:50.455Z,102773.81
2023-01-25T06:34:53.852Z,102775.19
2023-01-25T06:37:01.867Z,102779.44
2023-01-25T06:39:05.740Z,102772.84
2023-01-25T06:41:12.310Z,102777.09
2023-01-25T06:43:15.684Z,102758.59
2023-01-25T06:45:19.442Z,102770.53
2023-01-25T06:47:22.928Z,102772.84
2023-01-25T06:49:26.402Z,102774.78
2023-01-25T06:51:30.440Z,102780.66
2023-01-25T06:53:37.355Z,102780.16
2023-01-25T06:55:40.874Z,102776.81
2023-01-25T06:57:44.284Z,102783.00
2023-01-25T06:59:47.668Z,102785.56
2023-01-25T07:01:51.303Z,102777.25
2023-01-25T07:03:56.833Z,102778.59
2023-01-25T07:06:00.806Z,102775.13
2023-01-25T07:08:04.231Z,102788.22
2023-01-25T07:10:10.563Z,102786.97
2023-01-25T07:12:13.977Z,102781.88
2023-01-25T07:14:17.699Z,102786.41
2023-01-25T07:16:21.791Z,102790.16
2023-01-25T07:18:25.899Z,102700.06
2023-01-25T07:20:29.291Z,102783.28
2023-01-25T07:22:32.731Z,102776.53
2023-01-25T07:24:36.147Z,102783.06
2023-01-25T07:26:40.955Z,102784.06
2023-01-25T07:28:44.843Z,102785.63
2023-01-25T07:30:49.138Z,102785.00
2023-01-25T07:32:52.490Z,102778.13
2023-01-25T07:34:55.981Z,102779.22
2023-01-25T07:36:59.560Z,102691.19
2023-01-25T07:39:02.977Z,102772.00
2023-01-25T07:41:07.122Z,102780.84
2023-01-25T07:43:11.970Z,102779.59
2023-01-25T07:45:15.577Z,102783.63
2023-01-25T07:47:19.273Z,102771.03
2023-01-25T07:49:22.822Z,102776.81
2023-01-25T07:51:27.981Z,102779.59
2023-01-25T07:53:31.545Z,102777.22
2023-01-25T07:55:35.393Z,102779.03
2023-01-25T07:57:38.870Z,102778.84
2023-01-25T07:59:43.696Z,102779.88
2023-01-25T08:01:47.110Z,102768.06
2023-01-25T08:03:51.545Z,102763.94
2023-01-25T08:05:55.112Z,102759.25
2023-01-25T08:07:58.622Z,102761.47
2023-01-25T08:10:02.044Z,102765.50
2023-01-25T08:12:08.536Z,102763.53
2023-01-25T08:14:12.421Z,102767.22
2023-01-25T08:16:18.994Z,102768.28
2023-01-25T08:18:22.415Z,102768.28
2023-01-25T08:20:25.845Z,102764.75
2023-01-25T08:22:29.382Z,102774.03
2023-01-25T08:24:32.825Z,102773.75
2023-01-25T08:26:37.508Z,102772.25
2023-01-25T08:28:41.425Z,102773.31
2023-01-25T08:30:56.383Z,102763.09
2023-01-25T08:33:03.165Z,102767.84
2023-01-25T08:35:08.062Z,102761.16
2023-01-25T08:37:11.765Z,102751.69
2023-01-25T08:39:15.144Z,102760.34
2023-01-25T08:41:20.459Z,102759.81
2023-01-25T08:43:23.832Z,102754.56
2023-01-25T08:45:27.237Z,102755.03
2023-01-25T08:47:31.237Z,102757.28
2023-01-25T08:49:36.076Z,102759.31
2023-01-25T08:51:39.647Z,102755.66
2023-01-25T08:53:43.760Z,102748.31
2023-01-25T08:55:47.446Z,102743.44
2023-01-25T08:57:50.834Z,102752.56
2023-01-25T08:59:54.217Z,102758.81
2023-01-25T09:01:57.608Z,102751.88
2023-01-25T09:04:01.130Z,102748.75
2023-01-25T09:06:06.651Z,102748.66
2023-01-25T09:08:11.665Z,102747.91
2023-01-25T09:10:15.337Z,102748.47
2023-01-25T09:12:18.801Z,102734.94
2023-01-25T09:14:22.287Z,102746.50
2023-01-25T09:16:30.119Z,102741.84
2023-01-25T09:18:34.543Z,102747.75
2023-01-25T09:20:40.800Z,102752.22
2023-01-25T09:22:45.668Z,102741.91
2023-01-25T09:24:52.190Z,102744.84
2023-01-25T09:26:59.599Z,102740.50
2023-01-25T09:29:03.284Z,102734.44
2023-01-25T09:31:21.060Z,102732.69
2023-01-25T09:33:41.973Z,102726.94
2023-01-25T09:35:49.289Z,102722.38
2023-01-25T09:37:54.103Z,102722.72
2023-01-25T09:39:57.483Z,102716.06
2023-01-25T09:42:24.560Z,102648.97
2023-01-25T09:44:42.430Z,102718.78
2023-01-25T09:46:48.936Z,102722.91
2023-01-25T09:49:07.604Z,102710.50
2023-01-25T09:51:23.666Z,102705.25
2023-01-25T09:53:34.584Z,102641.81
2023-01-25T09:55:39.099Z,102699.09
2023-01-25T09:57:44.869Z,102701.59
2023-01-25T09:59:51.264Z,102696.50
2023-01-25T10:01:58.424Z,102695.59
2023-01-25T10:04:06.343Z,102695.59
2023-01-25T10:06:14.079Z,102701.13
2023-01-25T10:08:26.231Z,102695.69
2023-01-25T10:10:36.767Z,102695.81
2023-01-25T10:12:40.782Z,102695.13
2023-01-25T10:14:44.199Z,102687.59
2023-01-25T10:16:59.520Z,102689.81
2023-01-25T10:19:17.121Z,102681.78
2023-01-25T10:21:26.832Z,102690.53
2023-01-25T10:24:01.944Z,102680.78
2023-01-25T10:26:14.582Z,102680.72
2023-01-25T10:28:35.605Z,102672.72
2023-01-25T10:30:45.245Z,102670.41
2023-01-25T10:32:56.225Z,102674.81
2023-01-25T10:35:17.444Z,102677.47
2023-01-25T10:37:25.971Z,102670.66
2023-01-25T10:39:30.628Z,102662.84
2023-01-25T10:41:40.833Z,102548.47
2023-01-25T10:43:44.422Z,102660.63
2023-01-25T10:45:48.892Z,102656.16
2023-01-25T10:48:00.964Z,102658.94
2023-01-25T10:50:04.726Z,102656.97
2023-01-25T10:52:17.067Z,102640.56
2023-01-25T10:54:23.796Z,102643.72
2023-01-25T10:56:28.951Z,102637.72
2023-01-25T10:58:37.072Z,102639.78
2023-01-25T11:00:42.110Z,102635.19
2023-01-25T11:02:47.223Z,102632.34
2023-01-25T11:04:50.750Z,102641.72
2023-01-25T11:06:54.124Z,102633.34
2023-01-25T11:08:57.710Z,102623.94
2023-01-25T11:11:13.610Z,102627.91
2023-01-25T11:13:22.992Z,102626.72
2023-01-25T11:15:27.833Z,102614.25
2023-01-25T11:17:32.479Z,102621.22
2023-01-25T11:19:37.634Z,102621.56
2023-01-25T11:21:53.126Z,102623.53
2023-01-25T11:24:01.583Z,102513.81
2023-01-25T11:26:14.235Z,102615.59
2023-01-25T11:28:23.024Z,102610.72
2023-01-25T11:30:27.752Z,102606.78
2023-01-25T11:32:31.222Z,102609.53
2023-01-25T11:34:34.608Z,102603.75
2023-01-25T11:36:46.464Z,102586.72
2023-01-25T11:39:07.269Z,102583.72
2023-01-25T11:41:18.275Z,102582.59
2023-01-25T11:43:39.507Z,102579.00
2023-01-25T11:46:06.369Z,102571.56
2023-01-25T11:48:25.962Z,102570.75
2023-01-25T11:50:36.677Z,102564.97
2023-01-25T11:52:59.951Z,102561.63
2023-01-25T11:55:20.451Z,102449.81
2023-01-25T11:57:45.180Z,102541.78
2023-01-25T12:00:02.299Z,102544.84
2023-01-25T12:02:24.070Z,102532.47
2023-01-25T12:04:48.557Z,102525.25
2023-01-25T12:06:59.853Z,102527.84
2023-01-25T12:09:22.385Z,102516.09
2023-01-25T12:11:44.550Z,102510.47
2023-01-25T12:13:54.324Z,102511.59
2023-01-25T12:16:12.956Z,102505.41
2023-01-25T12:18:33.414Z,102503.16
2023-01-25T12:20:56.684Z,102499.50
2023-01-25T12:23:16.819Z,102499.84
2023-01-25T12:25:29.139Z,102478.84
2023-01-25T12:27:45.273Z,102469.97
2023-01-25T12:29:55.671Z,102452.97
2023-01-25T12:32:05.012Z,102471.94
2023-01-25T12:34:17.201Z,102462.56
2023-01-25T12:36:28.175Z,102448.31
2023-01-25T12:38:39.210Z,102445.47
2023-01-25T12:40:49.999Z,102446.06
2023-01-25T12:42:57.545Z,102445.25
2023-01-25T12:45:06.081Z,102434.56
2023-01-25T12:47:21.221Z,102324.03
2023-01-25T12:49:31.039Z,102428.50
2023-01-25T12:51:42.655Z,102321.44
2023-01-25T12:53:48.163Z,102416.22
2023-01-25T12:55:53.342Z,102419.44
2023-01-25T12:58:03.239Z,102417.00
2023-01-25T13:00:18.912Z,102408.91
2023-01-25T13:02:37.750Z,102413.25
2023-01-25T13:04:57.906Z,102395.63
2023-01-25T13:07:10.975Z,102287.41
2023-01-25T13:09:21.468Z,102377.28
2023-01-25T13:11:31.236Z,102377.63
2023-01-25T13:13:34.685Z,102359.84
2023-01-25T13:15:40.288Z,102363.75
2023-01-25T13:17:43.928Z,102356.50
2023-01-25T13:19:49.812Z,102345.94
2023-01-25T13:21:56.598Z,102357.56
2023-01-25T13:24:21.742Z,102348.91
2023-01-25T13:26:49.607Z,102350.59
2023-01-25T13:28:55.156Z,102338.97
2023-01-25T13:30:58.579Z,102337.31
2023-01-25T13:33:06.253Z,102339.13
2023-01-25T13:35:36.927Z,102331.41
2023-01-25T13:37:42.414Z,102325.59
2023-01-25T13:39:48.574Z,102226.28
2023-01-25T13:42:01.809Z,102326.88
2023-01-25T13:44:26.190Z,102319.94
2023-01-25T13:46:29.723Z,102324.59
2023-01-25T13:48:38.199Z,102335.66
2023-01-25T13:50:48.389Z,102323.78
2023-01-25T13:52:59.572Z,102318.63
2023-01-25T13:55:03.121Z,102326.25
2023-01-25T13:57:08.901Z,102328.94
2023-01-25T13:59:26.232Z,102319.94
2023-01-25T14:01:32.161Z,102326.13
2023-01-25T14:03:38.339Z,102321.47
2023-01-25T14:05:52.218Z,102309.13
2023-01-25T14:07:58.279Z,102307.16
2023-01-25T14:10:03.375Z,102284.66
2023-01-25T14:12:11.546Z,102310.03
2023-01-25T14:14:21.850Z,102307.81
2023-01-25T14:16:27.416Z,102308.06
2023-01-25T14:18:32.945Z,102305.75
2023-01-25T14:20:36.444Z,102303.06
2023-01-25T14:22:47.775Z,102302.00
2023-01-25T14:25:07.146Z,102293.25
2023-01-25T14:27:15.241Z,102303.97
2023-01-25T14:29:36.172Z,102296.50
2023-01-25T14:31:41.150Z,102301.00
2023-01-25T14:33:47.784Z,102298.03
2023-01-25T14:35:58.450Z,102294.81
2023-01-25T14:38:21.800Z,102285.03
2023-01-25T14:40:27.375Z,102287.88
2023-01-25T14:42:30.879Z,102278.81
2023-01-25T14:44:35.059Z,102279.22
2023-01-25T14:46:39.883Z,102285.94
2023-01-25T14:48:45.010Z,102291.34
2023-01-25T14:50:48.670Z,102270.22
2023-01-25T14:52:52.190Z,102285.94
2023-01-25T14:54:59.826Z,102282.81
2023-01-25T14:57:05.125Z,102199.16
2023-01-25T14:59:21.132Z,102280.53
2023-01-25T15:01:32.645Z,102285.53
2023-01-25T15:03:36.097Z,102283.22
2023-01-25T15:05:39.575Z,102270.34
2023-01-25T15:07:45.754Z,102277.56
2023-01-25T15:10:05.013Z,102261.44
2023-01-25T15:12:28.521Z,102268.81
2023-01-25T15:14:32.589Z,102173.81
2023-01-25T15:16:36.571Z,102265.44
2023-01-25T15:18:48.722Z,102163.75
2023-01-25T15:20:53.374Z,102178.53
2023-01-25T15:22:57.565Z,102258.63
2023-01-25T15:25:03.221Z,102257.84
2023-01-25T15:27:11.553Z,102252.41
2023-01-25T15:29:17.187Z,102255.78
2023-01-25T15:31:23.532Z,102239.94
2023-01-25T15:33:29.697Z,102242.13
2023-01-25T15:35:34.608Z,102238.88
2023-01-25T15:37:38.023Z,102234.41
2023-01-25T15:39:41.444Z,102227.06
2023-01-25T15:41:46.744Z,102224.59
2023-01-25T15:43:50.764Z,102218.69
2023-01-25T15:45:56.755Z,102214.81
2023-01-25T15:48:00.532Z,102205.06
2023-01-25T15:50:04.090Z,102213.66
2023-01-25T15:52:07.499Z,102213.06
2023-01-25T15:54:10.969Z,102206.38
2023-01-25T15:56:16.831Z,102211.25
2023-01-25T15:58:25.148Z,102109.56
2023-01-25T16:00:28.663Z,102208.53
2023-01-25T16:02:32.211Z,102204.94
2023-01-25T16:04:37.764Z,102208.31
2023-01-25T16:06:42.877Z,102203.81
2023-01-25T16:08:46.335Z,102204.84
2023-01-25T16:10:49.949Z,102201.75
2023-01-25T16:12:53.312Z,102207.66
2023-01-25T16:14:58.154Z,102210.72
2023-01-25T16:17:04.488Z,102191.94
2023-01-25T16:19:08.112Z,102193.00
2023-01-25T16:21:12.692Z,102201.88
2023-01-25T16:23:16.138Z,102199.16
2023-01-25T16:25:19.565Z,102194.78
2023-01-25T16:27:25.757Z,102199.03
2023-01-25T16:29:29.476Z,102204.69
2023-01-25T16:31:34.422Z,102199.44
2023-01-25T16:33:37.856Z,102197.63
2023-01-25T16:35:41.395Z,102193.88
2023-01-25T16:37:44.846Z,102183.47
2023-01-25T16:39:48.294Z,102188.13
2023-01-25T16:41:51.845Z,102188.38
2023-01-25T16:43:55.241Z,102192.97
2023-01-25T16:45:59.621Z,102194.53
2023-01-25T16:48:04.590Z,102189.38
2023-01-25T16:50:13.606Z,102187.44
2023-01-25T16:52:16.997Z,102188.72
2023-01-25T16:54:21.509Z,102186.25
2023-01-25T16:56:27.167Z,102189.47
2023-01-25T16:58:30.590Z,102183.81
2023-01-25T17:00:34.025Z,102192.69
2023-01-25T17:02:40.102Z,102190.13
2023-01-25T17:04:46.640Z,102182.09
2023-01-25T17:06:52.970Z,102182.50
2023-01-25T17:09:00.317Z,102175.78
2023-01-25T17:11:05.135Z,102173.09
2023-01-25T17:13:08.778Z,102174.69
2023-01-25T17:15:12.380Z,102174.44
2023-01-25T17:17:15.827Z,102177.03
2023-01-25T17:19:20.247Z,102165.56
2023-01-25T17:21:25.658Z,102171.63
2023-01-25T17:23:30.041Z,102170.31
2023-01-25T17:25:35.450Z,102163.63
2023-01-25T17:27:38.905Z,102164.25
2023-01-25T17:29:42.523Z,102165.03
2023-01-25T17:31:45.986Z,102168.38
2023-01-25T17:33:50.271Z,102164.50
2023-01-25T17:35:58.329Z,102165.47
2023-01-25T17:38:03.186Z,102161.22
2023-01-25T17:40:07.888Z,102158.91
2023-01-25T17:42:13.178Z,102151.78
2023-01-25T17:44:20.489Z,102157.34
2023-01-25T17:46:26.431Z,102155.66
2023-01-25T17:48:30.029Z,102145.53
2023-01-25T17:50:33.544Z,102155.78
2023-01-25T17:52:37.011Z,102150.00
2023-01-25T17:54:41.854Z,102153.34
2023-01-25T17:56:45.362Z,102157.47
2023-01-25T17:58:48.923Z,102050.06
2023-01-25T18:00:55.179Z,102141.78
2023-01-25T18:03:02.666Z,102146.53
2023-01-25T18:05:07.940Z,102151.03
2023-01-25T18:07:11.383Z,102149.50
2023-01-25T18:09:14.838Z,102145.88
2023-01-25T18:11:21.874Z,102144.22
2023-01-25T18:13:25.271Z,102144.59
2023-01-25T18:15:28.679Z,102153.63
2023-01-25T18:17:35.499Z,102151.03
2023-01-25T18:19:39.125Z,102147.97
2023-01-25T18:21:43.360Z,102151.53
2023-01-25T18:23:48.485Z,102142.28
2023-01-25T18:25:51.961Z,102147.81
2023-01-25T18:27:56.762Z,102147.19
2023-01-25T18:30:02.446Z,102147.31
2023-01-25T18:32:06.666Z,102139.97
2023-01-25T18:34:10.161Z,102146.94
2023-01-25T18:36:15.145Z,102040.41
2023-01-25T18:38:18.643Z,102119.13
2023-01-25T18:40:22.258Z,102130.72
2023-01-25T18:42:27.567Z,102135.22
2023-01-25T18:44:32.898Z,102133.28
2023-01-25T18:46:36.623Z,102125.84
2023-01-25T18:48:40.263Z,102119.38
2023-01-25T18:50:44.067Z,102128.25
2023-01-25T18:52:47.780Z,102121.59
2023-01-25T18:54:51.410Z,102119.03
2023-01-25T18:56:55.488Z,102112.44
2023-01-25T18:58:59.387Z,102106.53
2023-01-25T19:01:06.516Z,102106.53
2023-01-25T19:03:09.922Z,102107.56
2023-01-25T19:05:14.335Z,102105.00
2023-01-25T19:07:18.265Z,102105.09
2023-01-25T19:09:21.900Z,102060.50
2023-01-25T19:11:26.547Z,102098.69
2023-01-25T19:13:32.378Z,102092.00
2023-01-25T19:15:35.921Z,102080.53
2023-01-25T19:17:40.768Z,102084.94
2023-01-25T19:19:44.379Z,102082.34
2023-01-25T19:21:48.112Z,102085.94
2023-01-25T19:23:52.133Z,102059.72
2023-01-25T19:25:55.802Z,102085.81
2023-01-25T19:27:59.339Z,102075.13
2023-01-25T19:30:02.930Z,102060.22
2023-01-25T19:32:06.615Z,102064.19
2023-01-25T19:34:11.413Z,102062.28
2023-01-25T19:36:18.364Z,102046.59
2023-01-25T19:38:21.830Z,102043.75
2023-01-25T19:40:25.204Z,102037.81
2023-01-25T19:42:28.629Z,102034.72
2023-01-25T19:44:32.169Z,102035.25
2023-01-25T19:46:37.176Z,101933.38
2023-01-25T19:48:42.450Z,102030.91
2023-01-25T19:50:47.490Z,102030.91
2023-01-25T19:52:50.920Z,102009.50
2023-01-25T19:54:54.293Z,102000.53
2023-01-25T19:56:58.526Z,102001.41
2023-01-25T19:59:04.920Z,102000.63
2023-01-25T20:01:09.333Z,102002.56
2023-01-25T20:03:16.698Z,101980.34
2023-01-25T20:05:21.170Z,101982.28
2023-01-25T20:07:27.739Z,101997.06
2023-01-25T20:09:31.275Z,101994.91
2023-01-25T20:11:35.133Z,101988.25
2023-01-25T20:13:38.600Z,101979.22
2023-01-25T20:15:47.416Z,101980.88
2023-01-25T20:17:50.803Z,101996.94
2023-01-25T20:19:54.195Z,101992.97
2023-01-25T20:22:00.299Z,101995.16
2023-01-25T20:24:06.700Z,101994.16
2023-01-25T20:26:13.690Z,102001.63
2023-01-25T20:28:17.197Z,101997.63
2023-01-25T20:30:20.796Z,101990.56
2023-01-25T20:32:32.656Z,101980.78
2023-01-25T20:34:37.030Z,101974.84
2023-01-25T20:36:41.321Z,101880.84
2023-01-25T20:38:44.821Z,101985.44
2023-01-25T20:40:49.682Z,101979.75
2023-01-25T20:42:53.025Z,101967.78
2023-01-25T20:44:56.479Z,101980.28
2023-01-25T20:46:59.968Z,101974.38
2023-01-25T20:49:05.063Z,101984.66
2023-01-25T20:51:12.984Z,101979.00
2023-01-25T20:53:17.096Z,101983.88
2023-01-25T20:55:20.576Z,101984.41
2023-01-25T20:57:25.369Z,101985.81
2023-01-25T20:59:28.731Z,101988.78
2023-01-25T21:01:36.677Z,101971.41
2023-01-25T21:03:40.249Z,101970.41
2023-01-25T21:05:50.217Z,101965.66
2023-01-25T21:07:54.108Z,101961.13
2023-01-25T21:09:57.616Z,101978.47
2023-01-25T21:12:01.022Z,101972.06
2023-01-25T21:14:05.850Z,101965.38
2023-01-25T21:16:11.154Z,101959.31
2023-01-25T21:18:14.586Z,101945.81
2023-01-25T21:20:18.123Z,101946.72
2023-01-25T21:22:21.540Z,101946.19
2023-01-25T21:24:25.243Z,101928.88
2023-01-25T21:26:30.917Z,101835.28
2023-01-25T21:28:35.412Z,101930.03
2023-01-25T21:30:40.229Z,101925.28
2023-01-25T21:32:43.609Z,101902.84
2023-01-25T21:34:47.279Z,101922.00
2023-01-25T21:36:51.495Z,101923.13
2023-01-25T21:38:56.010Z,101930.56
2023-01-25T21:41:01.640Z,101928.66
2023-01-25T21:43:05.192Z,101936.88
2023-01-25T21:45:28.712Z,101926.19
2023-01-25T21:47:33.608Z,101923.78
2023-01-25T21:49:54.446Z,101926.78
2023-01-25T21:52:01.928Z,101948.13
2023-01-25T21:54:05.870Z,101947.38
2023-01-25T21:56:09.543Z,101952.38
2023-01-25T21:58:14.191Z,101944.94
2023-01-25T22:00:18.460Z,101943.25
2023-01-25T22:02:21.929Z,101931.94
2023-01-25T22:04:27.102Z,101931.69
2023-01-25T22:06:30.729Z,101939.00
2023-01-25T22:08:34.643Z,101841.81
2023-01-25T22:10:37.996Z,101943.00
2023-01-25T22:12:41.410Z,101947.13
2023-01-25T22:14:44.790Z,101944.53
2023-01-25T22:16:48.403Z,101946.84
2023-01-25T22:18:52.127Z,101939.50
2023-01-25T22:21:01.228Z,101947.88
2023-01-25T22:23:04.598Z,101935.00
2023-01-25T22:25:08.498Z,101929.09
2023-01-25T22:27:31.923Z,101865.19
2023-01-25T22:29:35.421Z,101930.44
2023-01-25T22:31:39.867Z,101932.47
2023-01-25T22:33:43.825Z,101941.56
2023-01-25T22:35:47.218Z,101942.22
2023-01-25T22:37:51.961Z,101933.91
2023-01-25T22:39:58.329Z,101943.53
2023-01-25T22:42:01.852Z,101938.66
2023-01-25T22:44:05.589Z,101938.91
2023-01-25T22:46:11.730Z,101933.00
2023-01-25T22:48:15.190Z,101943.28
2023-01-25T22:50:18.623Z,101935.69
2023-01-25T22:52:23.262Z,101936.22
2023-01-25T22:54:27.980Z,101930.53
2023-01-25T22:56:33.686Z,101840.03
2023-01-25T22:58:38.499Z,101932.09
2023-01-25T23:00:42.023Z,101925.53
2023-01-25T23:02:45.629Z,101928.66
2023-01-25T23:04:49.135Z,101923.13
2023-01-25T23:07:02.471Z,101922.72
2023-01-25T23:09:07.753Z,101930.19
2023-01-25T23:11:14.764Z,101918.88
2023-01-25T23:13:18.251Z,101922.72
2023-01-25T23:15:20.787Z,101920.41
2023-01-25T23:17:42.866Z,101922.31
2023-01-25T23:19:46.273Z,101921.56
2023-01-25T23:21:49.735Z,101908.31
2023-01-25T23:23:53.370Z,101917.59
2023-01-25T23:25:58.029Z,101917.69
2023-01-25T23:28:02.852Z,101909.63
2023-01-25T23:30:09.249Z,101906.00
2023-01-25T23:32:12.952Z,101906.53
2023-01-25T23:34:16.412Z,101896.38
2023-01-25T23:36:22.138Z,101890.59
2023-01-25T23:38:25.533Z,101903.31
2023-01-25T23:40:29.036Z,101902.16
2023-01-25T23:42:32.411Z,101900.25
2023-01-25T23:44:37.170Z,101898.59
2023-01-25T23:46:40.601Z,101888.31
2023-01-25T23:48:44.493Z,101891.25
2023-01-25T23:50:47.902Z,101886.63
2023-01-25T23:52:51.324Z,101890.72
2023-01-25T23:54:54.733Z,101885.47
2023-01-25T23:56:58.152Z,101889.06
2023-01-25T23:59:01.710Z,101872.13
